createdAt,value
2022-10-29T00:00:54.422Z,79.67
2022-10-29T00:01:54.456Z,79.16
2022-10-29T00:02:54.417Z,79.50
2022-10-29T00:03:54.361Z,79.67
2022-10-29T00:04:54.330Z,79.61
2022-10-29T00:05:54.316Z,79.67
2022-10-29T00:06:54.333Z,79.87
2022-10-29T00:07:54.704Z,79.97
2022-10-29T00:08:54.276Z,79.87
2022-10-29T00:09:54.266Z,79.36
2022-10-29T00:10:54.265Z,79.47
2022-10-29T00:11:54.262Z,79.06
2022-10-29T00:12:54.320Z,79.36
2022-10-29T00:13:54.216Z,79.71
2022-10-29T00:14:54.227Z,79.67
2022-10-29T00:15:54.201Z,79.57
2022-10-29T00:16:54.200Z,79.57
2022-10-29T00:17:54.679Z,79.27
2022-10-29T00:18:54.188Z,79.27
2022-10-29T00:19:54.202Z,79.16
2022-10-29T00:20:54.142Z,79.06
2022-10-29T00:21:54.148Z,79.36
2022-10-29T00:22:54.447Z,79.36
2022-10-29T00:23:54.126Z,79.27
2022-10-29T00:24:54.130Z,79.36
2022-10-29T00:25:54.092Z,79.47
2022-10-29T00:26:54.384Z,79.57
2022-10-29T00:27:54.079Z,79.47
2022-10-29T00:28:54.093Z,79.57
2022-10-29T00:29:54.085Z,79.57
2022-10-29T00:30:54.130Z,79.57
2022-10-29T00:31:54.123Z,79.36
2022-10-29T00:32:54.440Z,79.57
2022-10-29T00:33:54.009Z,79.36
2022-10-29T00:34:54.057Z,79.47
2022-10-29T00:35:53.975Z,79.57
2022-10-29T00:36:54.083Z,79.57
2022-10-29T00:37:54.178Z,79.36
2022-10-29T00:38:53.958Z,79.36
2022-10-29T00:39:53.958Z,79.27
2022-10-29T00:40:53.982Z,79.47
2022-10-29T00:41:53.921Z,79.27
2022-10-29T00:42:53.929Z,79.16
2022-10-29T00:43:54.026Z,79.27
2022-10-29T00:44:53.889Z,79.27
2022-10-29T00:45:53.877Z,79.06
2022-10-29T00:46:53.858Z,79.36
2022-10-29T00:47:54.278Z,79.77
2022-10-29T00:48:53.866Z,80.07
2022-10-29T00:49:53.836Z,79.67
2022-10-29T00:50:53.945Z,79.77
2022-10-29T00:51:53.842Z,79.67
2022-10-29T00:52:53.791Z,79.36
2022-10-29T00:53:53.973Z,79.27
2022-10-29T00:54:53.782Z,79.61
2022-10-29T00:55:53.783Z,79.27
2022-10-29T00:56:53.772Z,79.16
2022-10-29T00:57:54.182Z,79.81
2022-10-29T00:58:53.735Z,79.91
2022-10-29T00:59:53.711Z,79.87
2022-10-29T01:00:53.733Z,80.58
2022-10-29T01:01:53.920Z,80.68
2022-10-29T01:02:54.154Z,80.58
2022-10-29T01:03:53.676Z,80.27
2022-10-29T01:04:53.684Z,80.27
2022-10-29T01:05:53.676Z,80.38
2022-10-29T01:06:53.655Z,80.27
2022-10-29T01:07:53.633Z,79.87
2022-10-29T01:08:53.616Z,79.97
2022-10-29T01:09:53.625Z,80.27
2022-10-29T01:10:53.603Z,79.97
2022-10-29T01:11:53.599Z,80.38
2022-10-29T01:12:53.965Z,80.27
2022-10-29T01:13:53.576Z,80.27
2022-10-29T01:14:53.577Z,80.38
2022-10-29T01:15:53.547Z,80.51
2022-10-29T01:16:53.540Z,80.18
2022-10-29T01:17:53.936Z,80.47
2022-10-29T01:18:53.573Z,80.78
2022-10-29T01:19:53.505Z,80.68
2022-10-29T01:20:53.496Z,80.78
2022-10-29T01:21:53.506Z,80.78
2022-10-29T01:22:53.471Z,80.72
2022-10-29T01:23:53.459Z,80.78
2022-10-29T01:24:53.936Z,80.58
2022-10-29T01:25:53.428Z,80.92
2022-10-29T01:26:54.292Z,80.72
2022-10-29T01:27:53.841Z,80.92
2022-10-29T01:28:53.427Z,81.02
2022-10-29T01:29:54.344Z,81.22
2022-10-29T01:30:53.382Z,80.82
2022-10-29T01:31:53.400Z,81.18
2022-10-29T01:32:53.623Z,81.22
2022-10-29T01:33:53.408Z,81.28
2022-10-29T01:34:53.340Z,81.32
2022-10-29T01:35:53.356Z,81.32
2022-10-29T01:36:53.312Z,81.62
2022-10-29T01:37:53.302Z,82.23
2022-10-29T01:38:53.325Z,82.13
2022-10-29T01:39:53.279Z,81.82
2022-10-29T01:40:53.357Z,81.93
2022-10-29T01:41:53.270Z,81.82
2022-10-29T01:42:53.672Z,81.73
2022-10-29T01:43:53.249Z,81.82
2022-10-29T01:44:53.231Z,81.82
2022-10-29T01:45:53.214Z,81.93
2022-10-29T01:46:53.230Z,81.82
2022-10-29T01:47:53.606Z,82.33
2022-10-29T01:48:53.214Z,82.43
2022-10-29T01:49:53.194Z,82.23
2022-10-29T01:50:53.166Z,82.33
2022-10-29T01:51:53.170Z,82.23
2022-10-29T01:52:53.130Z,82.13
2022-10-29T01:53:53.145Z,82.13
2022-10-29T01:54:53.117Z,82.13
2022-10-29T01:55:53.117Z,81.73
2022-10-29T01:56:53.128Z,82.23
2022-10-29T01:57:53.324Z,82.73
2022-10-29T01:58:53.111Z,83.07
2022-10-29T01:59:56.076Z,82.98
2022-10-29T02:00:53.093Z,82.67
2022-10-29T02:01:53.118Z,82.73
2022-10-29T02:02:53.057Z,83.28
2022-10-29T02:03:53.028Z,82.98
2022-10-29T02:04:53.075Z,82.67
2022-10-29T02:05:53.034Z,82.98
2022-10-29T02:06:52.990Z,83.28
2022-10-29T02:07:53.017Z,83.38
2022-10-29T02:08:52.986Z,83.28
2022-10-29T02:09:52.943Z,83.28
2022-10-29T02:10:52.950Z,83.28
2022-10-29T02:11:52.978Z,83.74
2022-10-29T02:12:54.103Z,84.09
2022-10-29T02:13:52.960Z,83.84
2022-10-29T02:14:52.935Z,84.19
2022-10-29T02:15:52.891Z,83.98
2022-10-29T02:16:52.890Z,83.98
2022-10-29T02:17:53.106Z,83.88
2022-10-29T02:18:52.852Z,83.98
2022-10-29T02:19:52.863Z,84.09
2022-10-29T02:20:52.867Z,84.05
2022-10-29T02:21:52.823Z,83.88
2022-10-29T02:22:52.820Z,83.88
2022-10-29T02:23:52.791Z,83.78
2022-10-29T02:24:52.798Z,83.64
2022-10-29T02:25:52.832Z,83.88
2022-10-29T02:26:53.478Z,84.09
2022-10-29T02:27:52.971Z,83.95
2022-10-29T02:28:52.752Z,84.19
2022-10-29T02:29:52.737Z,84.09
2022-10-29T02:30:52.757Z,83.98
2022-10-29T02:31:52.762Z,84.19
2022-10-29T02:32:52.930Z,84.39
2022-10-29T02:33:52.690Z,84.29
2022-10-29T02:34:52.681Z,83.68
2022-10-29T02:35:52.674Z,84.29
2022-10-29T02:36:52.663Z,83.98
2022-10-29T02:37:52.648Z,83.98
2022-10-29T02:38:52.643Z,83.95
2022-10-29T02:39:52.624Z,83.98
2022-10-29T02:40:52.622Z,83.88
2022-10-29T02:41:52.593Z,84.09
2022-10-29T02:42:52.725Z,84.09
2022-10-29T02:43:52.583Z,83.88
2022-10-29T02:44:52.563Z,83.68
2022-10-29T02:45:52.551Z,84.05
2022-10-29T02:46:52.555Z,84.09
2022-10-29T02:47:52.845Z,84.09
2022-10-29T02:48:52.518Z,83.98
2022-10-29T02:49:52.513Z,84.29
2022-10-29T02:50:52.493Z,84.39
2022-10-29T02:51:52.495Z,84.29
2022-10-29T02:52:52.481Z,84.29
2022-10-29T02:53:52.483Z,84.39
2022-10-29T02:54:52.449Z,84.09
2022-10-29T02:55:52.440Z,84.29
2022-10-29T02:56:52.431Z,84.79
2022-10-29T02:57:52.528Z,84.09
2022-10-29T02:58:52.435Z,84.29
2022-10-29T02:59:52.399Z,84.39
2022-10-29T03:00:52.386Z,83.98
2022-10-29T03:01:52.558Z,84.49
2022-10-29T03:02:52.448Z,84.59
2022-10-29T03:03:52.369Z,84.79
2022-10-29T03:04:52.361Z,84.49
2022-10-29T03:05:52.338Z,84.69
2022-10-29T03:06:52.324Z,84.59
2022-10-29T03:07:52.308Z,84.59
2022-10-29T03:08:52.317Z,84.69
2022-10-29T03:09:52.301Z,84.69
2022-10-29T03:10:52.281Z,84.39
2022-10-29T03:11:52.263Z,84.39
2022-10-29T03:12:52.263Z,84.19
2022-10-29T03:13:52.266Z,84.79
2022-10-29T03:14:52.259Z,84.79
2022-10-29T03:15:52.229Z,84.79
2022-10-29T03:16:52.217Z,84.39
2022-10-29T03:17:52.215Z,85.10
2022-10-29T03:18:52.192Z,84.69
2022-10-29T03:19:52.222Z,84.69
2022-10-29T03:20:52.163Z,85.03
2022-10-29T03:21:52.154Z,85.74
2022-10-29T03:22:52.148Z,85.14
2022-10-29T03:23:52.132Z,85.44
2022-10-29T03:24:52.127Z,85.64
2022-10-29T03:25:55.537Z,85.44
2022-10-29T03:26:52.119Z,85.64
2022-10-29T03:27:52.090Z,85.84
2022-10-29T03:28:52.074Z,85.84
2022-10-29T03:29:52.086Z,85.74
2022-10-29T03:30:52.096Z,85.94
2022-10-29T03:31:52.044Z,85.44
2022-10-29T03:32:52.038Z,85.94
2022-10-29T03:33:52.049Z,85.24
2022-10-29T03:34:56.040Z,85.80
2022-10-29T03:35:53.082Z,85.74
2022-10-29T03:36:52.004Z,85.54
2022-10-29T03:37:51.985Z,86.04
2022-10-29T03:38:51.962Z,86.04
2022-10-29T03:39:51.957Z,86.04
2022-10-29T03:40:51.968Z,85.54
2022-10-29T03:41:51.966Z,85.84
2022-10-29T03:42:51.930Z,85.84
2022-10-29T03:43:51.960Z,85.74
2022-10-29T03:44:51.915Z,85.54
2022-10-29T03:45:51.893Z,85.84
2022-10-29T03:46:51.889Z,85.74
2022-10-29T03:47:51.882Z,85.84
2022-10-29T03:48:51.865Z,85.74
2022-10-29T03:49:51.852Z,85.84
2022-10-29T03:50:51.859Z,85.84
2022-10-29T03:51:51.836Z,85.64
2022-10-29T03:52:51.833Z,85.64
2022-10-29T03:53:51.809Z,85.84
2022-10-29T03:54:51.803Z,85.64
2022-10-29T03:55:51.809Z,85.84
2022-10-29T03:56:51.775Z,85.74
2022-10-29T03:57:51.781Z,85.84
2022-10-29T03:58:51.779Z,85.74
2022-10-29T03:59:52.751Z,85.84
2022-10-29T04:00:51.737Z,86.04
2022-10-29T04:01:51.953Z,86.29
2022-10-29T04:02:51.762Z,85.74
2022-10-29T04:03:51.707Z,85.84
2022-10-29T04:04:51.713Z,85.78
2022-10-29T04:05:51.681Z,86.49
2022-10-29T04:06:51.675Z,86.69
2022-10-29T04:07:51.662Z,86.49
2022-10-29T04:08:51.637Z,86.90
2022-10-29T04:09:51.648Z,86.99
2022-10-29T04:10:51.626Z,87.10
2022-10-29T04:11:51.612Z,87.10
2022-10-29T04:12:51.596Z,87.19
2022-10-29T04:13:51.589Z,87.10
2022-10-29T04:15:51.595Z,86.59
2022-10-29T04:16:51.551Z,86.99
2022-10-29T04:17:51.545Z,86.59
2022-10-29T04:18:51.532Z,86.90
2022-10-29T04:19:51.543Z,87.40
2022-10-29T04:26:48.132Z,87.50
2022-10-29T04:28:52.439Z,87.90
2022-10-29T04:29:51.436Z,87.40
2022-10-29T04:30:51.407Z,87.70
2022-10-29T04:31:51.410Z,87.60
2022-10-29T04:32:51.376Z,87.40
2022-10-29T04:33:51.405Z,87.60
2022-10-29T04:34:51.377Z,87.81
2022-10-29T04:35:51.360Z,87.90
2022-10-29T04:36:51.343Z,87.90
2022-10-29T04:37:51.347Z,87.90
2022-10-29T04:38:51.307Z,87.10
2022-10-29T04:39:51.311Z,87.50
2022-10-29T04:40:51.287Z,87.40
2022-10-29T04:41:51.275Z,87.40
2022-10-29T04:42:51.297Z,86.99
2022-10-29T04:43:51.258Z,86.69
2022-10-29T04:44:51.275Z,86.69
2022-10-29T04:45:51.238Z,86.90
2022-10-29T04:46:51.227Z,87.19
2022-10-29T04:47:51.203Z,87.19
2022-10-29T04:48:51.296Z,87.50
2022-10-29T04:49:51.198Z,87.70
2022-10-29T04:50:51.187Z,87.90
2022-10-29T04:51:51.169Z,87.70
2022-10-29T04:52:51.171Z,87.60
2022-10-29T04:53:51.154Z,87.19
2022-10-29T04:54:51.154Z,86.99
2022-10-29T04:55:51.135Z,86.79
2022-10-29T04:56:51.118Z,86.69
2022-10-29T04:57:51.091Z,87.40
2022-10-29T04:58:51.081Z,87.19
2022-10-29T04:59:51.092Z,87.10
2022-10-29T05:00:51.191Z,86.90
2022-10-29T05:01:51.047Z,86.79
2022-10-29T05:02:51.034Z,86.69
2022-10-29T05:03:54.282Z,86.79
2022-10-29T05:04:52.040Z,86.90
2022-10-29T05:05:50.997Z,86.93
2022-10-29T05:06:50.990Z,86.83
2022-10-29T05:07:51.000Z,87.95
2022-10-29T05:08:50.966Z,88.15
2022-10-29T05:09:50.962Z,87.84
2022-10-29T05:10:50.964Z,87.84
2022-10-29T05:11:50.955Z,88.19
2022-10-29T05:12:50.952Z,88.65
2022-10-29T05:13:50.928Z,88.04
2022-10-29T05:14:50.900Z,88.35
2022-10-29T05:15:53.175Z,88.25
2022-10-29T05:16:50.890Z,88.15
2022-10-29T05:17:50.889Z,88.15
2022-10-29T05:18:50.885Z,88.45
2022-10-29T05:19:50.857Z,88.25
2022-10-29T05:20:50.841Z,88.15
2022-10-29T05:21:50.835Z,88.45
2022-10-29T05:22:50.824Z,88.55
2022-10-29T05:23:50.817Z,88.25
2022-10-29T05:24:50.819Z,88.45
2022-10-29T05:25:50.791Z,87.84
2022-10-29T05:26:50.771Z,87.84
2022-10-29T05:27:50.775Z,88.04
2022-10-29T05:28:50.778Z,87.64
2022-10-29T05:29:50.740Z,87.74
2022-10-29T05:30:50.742Z,87.95
2022-10-29T05:31:50.730Z,87.74
2022-10-29T05:32:50.713Z,87.95
2022-10-29T05:33:52.534Z,88.15
2022-10-29T05:34:50.723Z,87.84
2022-10-29T05:35:50.678Z,88.15
2022-10-29T05:36:50.654Z,88.25
2022-10-29T05:37:50.647Z,87.74
2022-10-29T05:38:50.630Z,88.55
2022-10-29T05:39:50.629Z,88.55
2022-10-29T05:40:50.626Z,88.04
2022-10-29T05:41:50.596Z,88.09
2022-10-29T05:42:50.592Z,88.09
2022-10-29T05:43:50.602Z,88.29
2022-10-29T05:44:50.587Z,88.49
2022-10-29T05:45:50.562Z,88.02
2022-10-29T05:46:50.548Z,88.19
2022-10-29T05:47:50.556Z,88.33
2022-10-29T05:48:50.527Z,89.10
2022-10-29T05:49:50.747Z,89.20
2022-10-29T05:50:50.499Z,88.90
2022-10-29T05:51:50.485Z,88.79
2022-10-29T05:52:50.474Z,89.20
2022-10-29T05:53:50.474Z,88.90
2022-10-29T05:54:50.474Z,88.90
2022-10-29T05:55:50.463Z,89.00
2022-10-29T05:56:50.482Z,88.94
2022-10-29T05:57:50.441Z,88.90
2022-10-29T05:58:50.429Z,88.90
2022-10-29T05:59:50.413Z,88.70
2022-10-29T06:00:50.388Z,88.79
2022-10-29T06:01:50.559Z,88.90
2022-10-29T06:02:50.420Z,89.10
2022-10-29T06:03:50.375Z,89.00
2022-10-29T06:04:50.355Z,89.10
2022-10-29T06:05:50.339Z,88.90
2022-10-29T06:06:50.470Z,88.70
2022-10-29T06:07:50.329Z,88.90
2022-10-29T06:08:50.312Z,88.90
2022-10-29T06:09:50.293Z,88.70
2022-10-29T06:10:50.275Z,88.59
2022-10-29T06:11:50.302Z,88.90
2022-10-29T06:12:50.259Z,88.84
2022-10-29T06:13:50.249Z,88.79
2022-10-29T06:14:50.243Z,89.14
2022-10-29T06:15:50.241Z,89.14
2022-10-29T06:16:50.217Z,89.45
2022-10-29T06:17:50.207Z,89.45
2022-10-29T06:18:50.194Z,89.54
2022-10-29T06:19:50.190Z,89.89
2022-10-29T06:20:50.164Z,89.69
2022-10-29T06:21:50.153Z,89.69
2022-10-29T06:22:50.171Z,89.99
2022-10-29T06:23:50.153Z,89.75
2022-10-29T06:24:50.124Z,89.69
2022-10-29T06:25:50.116Z,89.89
2022-10-29T06:26:50.096Z,89.69
2022-10-29T06:27:50.098Z,89.69
2022-10-29T06:28:50.104Z,90.09
2022-10-29T06:29:50.069Z,89.89
2022-10-29T06:30:50.066Z,90.60
2022-10-29T06:31:50.053Z,89.99
2022-10-29T06:32:50.039Z,90.36
2022-10-29T06:33:50.051Z,90.56
2022-10-29T06:34:50.017Z,90.56
2022-10-29T06:35:50.021Z,89.54
2022-10-29T06:36:49.989Z,89.65
2022-10-29T06:37:49.984Z,88.94
2022-10-29T06:38:49.972Z,89.45
2022-10-29T06:39:49.970Z,89.20
2022-10-29T06:40:49.949Z,89.10
2022-10-29T06:41:49.936Z,89.30
2022-10-29T06:42:49.951Z,89.30
2022-10-29T06:43:49.909Z,89.30
2022-10-29T06:44:49.921Z,89.14
2022-10-29T06:45:49.901Z,89.10
2022-10-29T06:46:49.884Z,88.90
2022-10-29T06:47:49.877Z,88.90
2022-10-29T06:48:49.868Z,88.90
2022-10-29T06:49:49.852Z,89.00
2022-10-29T06:50:49.831Z,88.49
2022-10-29T06:51:49.856Z,88.70
2022-10-29T06:52:49.838Z,88.90
2022-10-29T06:53:49.802Z,88.90
2022-10-29T06:54:50.056Z,88.59
2022-10-29T06:55:50.011Z,88.90
2022-10-29T06:56:50.069Z,89.14
2022-10-29T06:57:49.823Z,89.00
2022-10-29T06:58:49.745Z,88.90
2022-10-29T06:59:49.745Z,89.20
2022-10-29T07:00:49.888Z,88.96
2022-10-29T07:01:49.723Z,88.96
2022-10-29T07:02:49.719Z,88.75
2022-10-29T07:03:49.714Z,89.26
2022-10-29T07:04:49.685Z,88.35
2022-10-29T07:05:49.684Z,88.10
2022-10-29T07:06:49.651Z,88.21
2022-10-29T07:07:49.646Z,88.41
2022-10-29T07:08:49.643Z,87.90
2022-10-29T07:09:49.623Z,88.41
2022-10-29T07:10:49.614Z,87.50
2022-10-29T07:11:49.612Z,87.60
2022-10-29T07:12:49.594Z,87.70
2022-10-29T07:13:49.579Z,88.31
2022-10-29T07:14:49.571Z,87.50
2022-10-29T07:15:49.564Z,88.31
2022-10-29T07:16:49.581Z,87.50
2022-10-29T07:17:49.534Z,87.56
2022-10-29T07:18:49.531Z,87.70
2022-10-29T07:19:49.519Z,86.85
2022-10-29T07:20:49.504Z,87.26
2022-10-29T07:21:49.507Z,87.05
2022-10-29T07:22:49.497Z,86.55
2022-10-29T07:23:49.466Z,86.65
2022-10-29T07:24:49.465Z,86.04
2022-10-29T07:25:49.484Z,86.15
2022-10-29T07:26:49.438Z,86.15
2022-10-29T07:27:49.500Z,85.90
2022-10-29T07:28:49.412Z,85.50
2022-10-29T07:29:49.399Z,86.30
2022-10-29T07:30:49.393Z,85.60
2022-10-29T07:31:49.438Z,85.80
2022-10-29T07:32:49.400Z,85.70
2022-10-29T07:33:49.465Z,85.60
2022-10-29T07:34:49.348Z,85.40
2022-10-29T07:35:49.348Z,85.70
2022-10-29T07:36:49.330Z,85.80
2022-10-29T07:37:49.317Z,85.70
2022-10-29T07:38:49.318Z,86.30
2022-10-29T07:39:49.309Z,85.25
2022-10-29T07:40:49.322Z,85.50
2022-10-29T07:41:49.270Z,85.25
2022-10-29T07:42:49.256Z,84.89
2022-10-29T07:43:49.242Z,84.99
2022-10-29T07:44:49.265Z,85.76
2022-10-29T07:45:49.232Z,85.70
2022-10-29T07:46:49.209Z,85.80
2022-10-29T07:47:49.205Z,85.56
2022-10-29T07:48:49.198Z,84.55
2022-10-29T07:49:49.205Z,85.52
2022-10-29T07:50:49.194Z,85.42
2022-10-29T07:51:49.224Z,84.11
2022-10-29T07:52:49.142Z,83.91
2022-10-29T07:53:49.173Z,84.01
2022-10-29T07:54:49.137Z,84.11
2022-10-29T07:55:49.213Z,83.80
2022-10-29T07:56:49.102Z,83.76
2022-10-29T07:57:49.092Z,83.87
2022-10-29T07:58:49.084Z,82.96
2022-10-29T07:59:49.074Z,82.45
2022-10-29T08:00:49.149Z,82.86
2022-10-29T08:01:49.455Z,83.02
2022-10-29T08:02:49.056Z,82.71
2022-10-29T08:03:49.081Z,82.28
2022-10-29T08:04:49.025Z,82.18
2022-10-29T08:05:55.178Z,81.57
2022-10-29T08:06:50.005Z,81.77
2022-10-29T08:07:49.006Z,81.67
2022-10-29T08:08:49.001Z,81.07
2022-10-29T08:09:49.009Z,81.07
2022-10-29T08:10:48.971Z,81.87
2022-10-29T08:11:48.957Z,80.83
2022-10-29T08:12:48.941Z,80.63
2022-10-29T08:13:48.964Z,80.93
2022-10-29T08:14:48.923Z,80.52
2022-10-29T08:15:48.903Z,80.29
2022-10-29T08:16:48.940Z,80.05
2022-10-29T08:17:48.930Z,79.30
2022-10-29T08:18:48.895Z,78.56
2022-10-29T08:19:48.866Z,77.69
2022-10-29T08:20:48.892Z,76.25
2022-10-29T08:21:48.866Z,75.45
2022-10-29T08:22:48.869Z,75.84
2022-10-29T08:23:48.837Z,75.21
2022-10-29T08:24:48.928Z,74.71
2022-10-29T08:25:48.800Z,73.67
2022-10-29T08:26:48.778Z,72.93
2022-10-29T08:27:48.819Z,73.10
2022-10-29T08:28:48.757Z,72.09
2022-10-29T08:29:48.842Z,71.46
2022-10-29T08:30:48.734Z,71.23
2022-10-29T08:31:48.856Z,70.43
2022-10-29T08:32:48.721Z,70.39
2022-10-29T08:33:48.719Z,69.26
2022-10-29T08:34:48.835Z,69.02
2022-10-29T08:35:48.675Z,68.59
2022-10-29T08:36:48.669Z,68.06
2022-10-29T08:37:48.683Z,67.46
2022-10-29T08:38:48.642Z,66.93
2022-10-29T08:39:48.687Z,66.10
2022-10-29T08:40:48.620Z,65.67
2022-10-29T08:41:48.644Z,64.94
2022-10-29T08:42:48.604Z,64.54
2022-10-29T08:43:48.664Z,64.84
2022-10-29T08:44:48.601Z,65.17
2022-10-29T08:45:48.607Z,65.08
2022-10-29T08:46:48.563Z,65.20
2022-10-29T08:47:48.548Z,65.83
2022-10-29T08:48:48.554Z,66.63
2022-10-29T08:49:48.518Z,66.10
2022-10-29T08:50:48.509Z,65.91
2022-10-29T08:51:48.544Z,66.00
2022-10-29T08:52:58.898Z,66.43
2022-10-29T08:53:58.915Z,66.63
2022-10-29T08:54:49.466Z,66.96
2022-10-29T08:55:48.478Z,67.40
2022-10-29T08:56:48.489Z,67.19
2022-10-29T08:57:48.447Z,68.03
2022-10-29T08:58:48.450Z,68.82
2022-10-29T08:59:48.414Z,68.43
2022-10-29T09:00:48.452Z,68.76
2022-10-29T09:01:48.571Z,69.26
2022-10-29T09:02:48.378Z,68.99
2022-10-29T09:03:48.378Z,69.29
2022-10-29T09:04:48.362Z,69.59
2022-10-29T09:05:48.352Z,70.03
2022-10-29T09:06:48.375Z,70.29
2022-10-29T09:07:48.327Z,70.23
2022-10-29T09:08:48.323Z,70.23
2022-10-29T09:09:48.298Z,70.43
2022-10-29T09:10:48.301Z,70.73
2022-10-29T09:11:48.291Z,70.66
2022-10-29T09:12:48.323Z,71.26
2022-10-29T09:13:48.309Z,71.76
2022-10-29T09:14:48.249Z,71.96
2022-10-29T09:15:49.574Z,71.80
2022-10-29T09:16:48.242Z,72.00
2022-10-29T09:17:48.224Z,71.69
2022-10-29T09:18:48.247Z,72.30
2022-10-29T09:19:48.205Z,72.09
2022-10-29T09:20:48.195Z,72.09
2022-10-29T09:21:48.177Z,72.19
2022-10-29T09:22:48.164Z,72.09
2022-10-29T09:23:48.192Z,72.36
2022-10-29T09:24:48.154Z,72.26
2022-10-29T09:25:48.144Z,71.16
2022-10-29T09:26:48.204Z,70.92
2022-10-29T09:27:48.120Z,71.09
2022-10-29T09:28:48.130Z,69.96
2022-10-29T09:29:48.129Z,69.23
2022-10-29T09:30:48.116Z,68.59
2022-10-29T09:31:48.075Z,68.49
2022-10-29T09:32:48.130Z,68.26
2022-10-29T09:33:48.048Z,67.10
2022-10-29T09:34:48.065Z,66.60
2022-10-29T09:35:48.123Z,66.10
2022-10-29T09:36:48.977Z,66.63
2022-10-29T09:37:48.004Z,66.73
2022-10-29T09:38:47.992Z,66.13
2022-10-29T09:39:49.016Z,67.36
2022-10-29T09:40:48.009Z,67.76
2022-10-29T09:41:47.952Z,67.40
2022-10-29T09:42:47.948Z,67.99
2022-10-29T09:43:47.950Z,68.13
2022-10-29T09:44:47.930Z,68.33
2022-10-29T09:45:48.189Z,68.33
2022-10-29T09:46:47.911Z,68.82
2022-10-29T09:47:47.949Z,68.93
2022-10-29T09:48:47.882Z,69.02
2022-10-29T09:49:47.866Z,68.52
2022-10-29T09:50:47.891Z,69.26
2022-10-29T09:51:47.847Z,69.56
2022-10-29T09:52:47.850Z,69.46
2022-10-29T09:53:47.837Z,69.39
2022-10-29T09:54:47.850Z,69.29
2022-10-29T09:55:47.803Z,69.69
2022-10-29T09:56:53.327Z,70.09
2022-10-29T09:57:48.785Z,70.39
2022-10-29T09:58:47.782Z,70.12
2022-10-29T09:59:47.771Z,70.23
2022-10-29T10:00:47.750Z,70.83
2022-10-29T10:01:47.830Z,71.23
2022-10-29T10:02:47.836Z,71.56
2022-10-29T10:03:47.779Z,70.96
2022-10-29T10:04:47.715Z,71.06
2022-10-29T10:05:47.738Z,71.89
2022-10-29T10:06:47.714Z,72.30
2022-10-29T10:07:47.692Z,72.09
2022-10-29T10:08:47.671Z,72.23
2022-10-29T10:09:47.658Z,72.93
2022-10-29T10:10:47.671Z,73.27
2022-10-29T10:11:47.631Z,73.36
2022-10-29T10:12:47.634Z,74.17
2022-10-29T10:13:47.605Z,74.07
2022-10-29T10:14:47.597Z,74.01
2022-10-29T10:15:47.671Z,73.90
2022-10-29T10:16:47.601Z,74.34
2022-10-29T10:17:47.592Z,75.04
2022-10-29T10:18:47.555Z,75.95
2022-10-29T10:19:47.555Z,75.74
2022-10-29T10:20:47.530Z,75.54
2022-10-29T10:21:47.555Z,75.21
2022-10-29T10:22:47.522Z,75.10
2022-10-29T10:23:47.513Z,75.10
2022-10-29T10:24:47.484Z,74.77
2022-10-29T10:25:47.538Z,74.23
2022-10-29T10:26:47.468Z,74.00
2022-10-29T10:27:47.500Z,74.10
2022-10-29T10:28:47.441Z,73.76
2022-10-29T10:29:47.438Z,72.26
2022-10-29T10:30:47.428Z,71.56
2022-10-29T10:31:47.451Z,71.83
2022-10-29T10:32:47.432Z,72.03
2022-10-29T10:33:47.423Z,71.73
2022-10-29T10:34:47.383Z,71.92
2022-10-29T10:35:47.368Z,71.56
2022-10-29T10:36:47.371Z,71.66
2022-10-29T10:37:47.376Z,72.16
2022-10-29T10:38:47.340Z,71.66
2022-10-29T10:39:47.331Z,72.06
2022-10-29T10:40:47.327Z,72.16
2022-10-29T10:41:47.305Z,72.26
2022-10-29T10:42:47.283Z,71.16
2022-10-29T10:43:47.296Z,72.06
2022-10-29T10:44:47.266Z,71.66
2022-10-29T10:45:47.279Z,71.86
2022-10-29T10:46:47.247Z,72.26
2022-10-29T10:47:47.256Z,72.16
2022-10-29T10:48:47.252Z,72.16
2022-10-29T10:49:47.204Z,71.96
2022-10-29T10:50:47.235Z,71.76
2022-10-29T10:51:47.196Z,71.66
2022-10-29T10:52:47.206Z,71.96
2022-10-29T10:53:47.177Z,70.96
2022-10-29T10:54:47.283Z,71.46
2022-10-29T10:55:47.187Z,71.36
2022-10-29T10:56:47.140Z,70.96
2022-10-29T10:57:47.119Z,70.96
2022-10-29T10:58:47.118Z,71.86
2022-10-29T10:59:47.106Z,71.66
2022-10-29T11:00:47.168Z,71.76
2022-10-29T11:01:47.360Z,71.16
2022-10-29T11:02:47.076Z,71.16
2022-10-29T11:03:47.081Z,71.92
2022-10-29T11:04:47.052Z,71.23
2022-10-29T11:05:47.032Z,71.03
2022-10-29T11:06:47.132Z,70.23
2022-10-29T11:07:47.030Z,70.46
2022-10-29T11:08:47.009Z,70.53
2022-10-29T11:09:47.004Z,70.62
2022-10-29T11:10:47.018Z,71.23
2022-10-29T11:11:46.986Z,71.03
2022-10-29T11:12:46.964Z,71.03
2022-10-29T11:13:46.954Z,70.32
2022-10-29T11:14:46.978Z,70.73
2022-10-29T11:15:46.944Z,70.92
2022-10-29T11:16:47.025Z,70.53
2022-10-29T11:17:52.923Z,70.59
2022-10-29T11:18:47.898Z,70.49
2022-10-29T11:19:46.902Z,70.19
2022-10-29T11:20:46.909Z,70.26
2022-10-29T11:21:46.884Z,70.16
2022-10-29T11:22:46.860Z,69.66
2022-10-29T11:23:46.848Z,69.56
2022-10-29T11:24:46.834Z,69.56
2022-10-29T11:25:46.859Z,69.16
2022-10-29T11:26:46.813Z,69.06
2022-10-29T11:27:46.820Z,69.56
2022-10-29T11:28:46.788Z,69.69
2022-10-29T11:29:49.097Z,69.69
2022-10-29T11:30:46.811Z,70.03
2022-10-29T11:31:46.788Z,70.16
2022-10-29T11:32:46.745Z,70.86
2022-10-29T11:33:46.737Z,71.96
2022-10-29T11:34:46.718Z,72.00
2022-10-29T11:35:46.727Z,72.39
2022-10-29T11:36:46.726Z,72.39
2022-10-29T11:37:46.683Z,72.19
2022-10-29T11:38:46.676Z,72.19
2022-10-29T11:39:46.658Z,72.39
2022-10-29T11:40:46.655Z,72.09
2022-10-29T11:41:46.673Z,72.13
2022-10-29T11:42:46.644Z,72.30
2022-10-29T11:43:46.617Z,72.13
2022-10-29T11:44:46.618Z,72.63
2022-10-29T11:45:46.594Z,72.43
2022-10-29T11:46:46.637Z,72.63
2022-10-29T11:47:46.584Z,72.53
2022-10-29T11:48:46.562Z,72.43
2022-10-29T11:49:46.559Z,72.53
2022-10-29T11:50:46.551Z,72.93
2022-10-29T11:51:46.560Z,72.60
2022-10-29T11:52:46.551Z,72.30
2022-10-29T11:53:46.509Z,72.60
2022-10-29T11:54:46.497Z,72.89
2022-10-29T11:55:46.495Z,72.30
2022-10-29T11:56:46.478Z,72.56
2022-10-29T11:57:46.503Z,72.36
2022-10-29T11:58:46.464Z,72.16
2022-10-29T11:59:46.451Z,72.36
2022-10-29T12:00:46.441Z,72.06
2022-10-29T12:01:46.501Z,72.36
2022-10-29T12:02:46.419Z,71.23
2022-10-29T12:03:46.441Z,71.73
2022-10-29T12:04:46.420Z,71.23
2022-10-29T12:05:46.418Z,71.42
2022-10-29T12:06:46.423Z,71.83
2022-10-29T12:07:46.395Z,71.03
2022-10-29T12:08:46.343Z,70.73
2022-10-29T12:09:46.368Z,70.99
2022-10-29T12:10:48.047Z,70.49
2022-10-29T12:11:46.318Z,70.29
2022-10-29T12:12:46.297Z,70.49
2022-10-29T12:13:46.302Z,70.59
2022-10-29T12:14:46.333Z,70.69
2022-10-29T12:15:46.269Z,70.49
2022-10-29T12:16:46.265Z,70.69
2022-10-29T12:17:46.374Z,70.19
2022-10-29T12:18:46.242Z,70.19
2022-10-29T12:19:46.290Z,70.09
2022-10-29T12:20:46.253Z,70.16
2022-10-29T12:21:46.208Z,70.29
2022-10-29T12:22:46.200Z,70.09
2022-10-29T12:23:46.198Z,70.09
2022-10-29T12:24:46.219Z,70.49
2022-10-29T12:25:46.191Z,70.49
2022-10-29T12:26:46.154Z,70.39
2022-10-29T12:27:46.185Z,70.09
2022-10-29T12:28:46.118Z,70.19
2022-10-29T12:29:46.129Z,70.19
2022-10-29T12:30:46.127Z,70.19
2022-10-29T12:31:46.110Z,70.19
2022-10-29T12:32:46.124Z,70.39
2022-10-29T12:33:46.078Z,70.46
2022-10-29T12:34:46.059Z,70.19
2022-10-29T12:35:46.048Z,70.29
2022-10-29T12:36:46.045Z,70.26
2022-10-29T12:37:46.052Z,70.06
2022-10-29T12:38:46.024Z,70.36
2022-10-29T12:39:46.089Z,70.26
2022-10-29T12:40:46.000Z,70.26
2022-10-29T12:41:45.983Z,70.66
2022-10-29T12:42:46.012Z,70.66
2022-10-29T12:43:46.037Z,70.26
2022-10-29T12:44:45.955Z,70.66
2022-10-29T12:46:06.864Z,70.56
2022-10-29T12:46:47.005Z,70.29
2022-10-29T12:47:45.926Z,69.99
2022-10-29T12:48:45.947Z,71.23
2022-10-29T12:49:45.891Z,71.12
2022-10-29T12:50:45.901Z,71.62
2022-10-29T12:51:45.893Z,72.16
2022-10-29T12:52:45.866Z,72.26
2022-10-29T12:53:45.861Z,71.86
2022-10-29T12:54:45.892Z,72.39
2022-10-29T12:55:45.839Z,72.86
2022-10-29T12:56:49.372Z,72.69
2022-10-29T12:57:45.809Z,72.86
2022-10-29T12:58:45.802Z,72.86
2022-10-29T12:59:45.794Z,72.76
2022-10-29T13:00:45.912Z,72.96